Adrian, MI

1:18 AM EDT on September 04, 2015 (GMT -0400)
AdrianWeather.com | | Change Station
CLOSE
Current Station
Personal Weather Station
Location: Adrian, MI
Elevation: 823 ft
Nearby Weather Stations

Elev 823 ft 41.91 °N, 84.08 °W | Updated 14 seconds ago

Overcast
Overcast
68.9 °F
Feels Like 68.9 °F
N
0.0
Wind Variable Wind from East
Gusts 3.0 mph

Today
High -- | Low -- °F
--% Chance of Precip.
Yesterday
High -- | Low -- °F
Precip. -- in
7:04 AM 8:05 PM
Waning Gibbous, 63% visible
Pressure 29.97 in
Visibility 4.0 miles
Clouds Mostly Cloudy 500 ft
Mostly Cloudy 3500 ft
Mostly Cloudy 4700 ft
Dew Point 65 °F
Humidity 88%
Rainfall 0.00 in
Snow Depth Not available.
UV 0 out of 12
Pollen 10.00 out of 12
Air Quality Not available.
Flu Activity Not available.
SPECI KADG 040500Z AUTO 07009KT 4SM -TSRA BR BKN005 BKN035 BKN047 21/21 A2997 RMK AO2 LTG DSNT N-SE P0000 T02110206
Pressure 29.97 in
Visibility 4.0 miles
Clouds Mostly Cloudy 500 ft
Mostly Cloudy 3500 ft
Mostly Cloudy 4700 ft
Dew Point 65 °F
Humidity 88%
Rainfall 0.00 in
Snow Depth Not available.
UV 0 out of 12
Pollen 10.00 out of 12
Air Quality Not available.
Flu Activity Not available.
SPECI KADG 040500Z AUTO 07009KT 4SM -TSRA BR BKN005 BKN035 BKN047 21/21 A2997 RMK AO2 LTG DSNT N-SE P0000 T02110206

10-Day Weather Forecast

×

Almanac

Astronomy

Sep. 04, 2015 Rise Set
Actual Time
Civil Twilight
Nautical Twilight
Astronomical Twilight
Moon
Length of Visible Light
Length of Day
Tomorrow will be .
, % of the Moon is Illuminated

Today's Extremes

State Highs State Lows

Community

WunderPhotos

Upload Photos

1,852,129 photos uploaded!

WunderBlogs® & News

Nearby

Air Quality

  Air Quality AQ Index Pollutant
Not available.

Snow Depth

Station Depth Elevation

Earthquake Activity

City Distance Mag. Time & Date
Minimum magnitude displayed is 2.5.

Coastal Water Temperatures

Place Temperature

Stations

Nearby Weather Stations

Station Location Temp. Windchill Dew Point Humidity Wind Precip. Elev Updated Type